createdAt,value
2017-07-16T00:01:49.493Z,101125.02
2017-07-16T00:04:18.802Z,101125.60
2017-07-16T00:06:47.895Z,101115.70
2017-07-16T00:09:16.938Z,101118.83
2017-07-16T00:11:46.751Z,101121.83
2017-07-16T00:14:16.588Z,101117.92
2017-07-16T00:16:46.491Z,101123.03
2017-07-16T00:19:16.322Z,101123.56
2017-07-16T00:21:45.386Z,101119.70
2017-07-16T00:24:15.264Z,101120.27
2017-07-16T00:26:44.329Z,101120.05
2017-07-16T00:29:13.385Z,101119.08
2017-07-16T00:31:43.227Z,101117.34
2017-07-16T00:34:12.300Z,101120.49
2017-07-16T00:36:42.129Z,101117.92
2017-07-16T00:39:11.861Z,101123.25
2017-07-16T00:41:40.917Z,101117.92
2017-07-16T00:44:10.757Z,101117.16
2017-07-16T00:46:39.832Z,101113.61
2017-07-16T00:49:09.648Z,101114.15
2017-07-16T00:51:39.676Z,101116.07
2017-07-16T00:54:08.732Z,101123.56
2017-07-16T00:56:37.800Z,101124.77
2017-07-16T00:59:06.868Z,101120.64
2017-07-16T01:01:35.956Z,101119.55
2017-07-16T01:04:05.006Z,101113.39
2017-07-16T01:06:34.057Z,101120.31
2017-07-16T01:09:03.149Z,101110.63
2017-07-16T01:11:32.219Z,101108.64
2017-07-16T01:14:01.277Z,101110.41
2017-07-16T01:16:30.341Z,101115.74
2017-07-16T01:18:59.416Z,101111.47
2017-07-16T01:21:29.252Z,101107.34
2017-07-16T01:23:58.307Z,101105.27
2017-07-16T01:26:28.130Z,101101.98
2017-07-16T01:28:57.960Z,101099.36
2017-07-16T01:31:27.002Z,101094.80
2017-07-16T01:33:56.057Z,101096.36
2017-07-16T01:36:25.139Z,101097.73
2017-07-16T01:38:54.980Z,101097.16
2017-07-16T01:41:24.032Z,101103.20
2017-07-16T01:43:53.176Z,101097.52
2017-07-16T01:46:22.255Z,101097.70
2017-07-16T01:48:51.324Z,101097.87
2017-07-16T01:51:20.421Z,101102.23
2017-07-16T01:53:49.533Z,101092.99
2017-07-16T01:56:18.614Z,101098.46
2017-07-16T01:58:48.513Z,101094.19
2017-07-16T02:01:17.548Z,101092.59
2017-07-16T02:03:46.657Z,101093.35
2017-07-16T02:06:15.776Z,101094.33
2017-07-16T02:08:44.829Z,101101.25
2017-07-16T02:11:13.912Z,101106.36
2017-07-16T02:13:42.984Z,101104.05
2017-07-16T02:16:12.804Z,101101.36
2017-07-16T02:18:42.649Z,101100.31
2017-07-16T02:21:11.749Z,101099.58
2017-07-16T02:23:40.805Z,101103.03
2017-07-16T02:26:10.657Z,101098.32
2017-07-16T02:28:39.688Z,101099.77
2017-07-16T02:31:09.308Z,101097.80
2017-07-16T02:33:38.513Z,101101.47
2017-07-16T02:36:08.362Z,101105.16
2017-07-16T02:38:37.440Z,101109.58
2017-07-16T02:41:06.503Z,101109.88
2017-07-16T02:43:35.654Z,101105.78
2017-07-16T02:46:04.820Z,101111.98
2017-07-16T02:48:34.622Z,101107.08
2017-07-16T02:51:04.441Z,101110.06
2017-07-16T02:53:34.266Z,101103.57
2017-07-16T02:56:03.920Z,101104.83
2017-07-16T02:58:32.993Z,101104.69
2017-07-16T03:01:02.345Z,101107.59
2017-07-16T03:03:31.387Z,101106.79
2017-07-16T03:06:00.463Z,101101.00
2017-07-16T03:08:29.521Z,101099.00
2017-07-16T03:10:58.593Z,101101.94
2017-07-16T03:13:27.684Z,101104.98
2017-07-16T03:15:56.745Z,101104.41
2017-07-16T03:18:25.833Z,101103.67
2017-07-16T03:20:54.917Z,101102.52
2017-07-16T03:23:24.732Z,101105.09
2017-07-16T03:25:54.565Z,101102.16
2017-07-16T03:28:23.644Z,101103.09
2017-07-16T03:30:53.465Z,101108.82
2017-07-16T03:33:22.534Z,101103.17
2017-07-16T03:35:51.605Z,101111.72
2017-07-16T03:38:20.689Z,101108.20
2017-07-16T03:40:50.197Z,101115.23
2017-07-16T03:43:19.249Z,101114.47
2017-07-16T03:45:49.102Z,101116.03
2017-07-16T03:48:18.139Z,101109.47
2017-07-16T03:50:48.211Z,101109.26
2017-07-16T03:53:17.355Z,101102.59
2017-07-16T03:55:46.389Z,101108.53
2017-07-16T03:58:15.467Z,101112.55
2017-07-16T04:00:45.304Z,101117.27
2017-07-16T04:03:14.397Z,101117.88
2017-07-16T04:05:43.433Z,101115.05
2017-07-16T04:08:12.652Z,101116.94
2017-07-16T04:10:42.478Z,101112.01
2017-07-16T04:13:12.693Z,101114.19
2017-07-16T04:15:41.765Z,101113.75
2017-07-16T04:18:10.829Z,101117.23
2017-07-16T04:20:39.915Z,101122.63
2017-07-16T04:23:09.004Z,101117.48
2017-07-16T04:25:38.056Z,101119.47
2017-07-16T04:28:07.869Z,101113.52
2017-07-16T04:30:36.937Z,101112.61
2017-07-16T04:33:05.984Z,101115.70
2017-07-16T04:35:35.045Z,101115.36
2017-07-16T04:38:04.121Z,101125.95
2017-07-16T04:40:33.151Z,101117.36
2017-07-16T04:43:03.023Z,101121.02
2017-07-16T04:45:32.955Z,101117.44
2017-07-16T04:48:02.056Z,101124.33
2017-07-16T04:50:31.096Z,101126.14
2017-07-16T04:53:00.131Z,101125.88
2017-07-16T04:55:29.242Z,101124.28
2017-07-16T04:57:58.263Z,101130.41
2017-07-16T05:00:27.353Z,101133.27
2017-07-16T05:02:57.198Z,101123.66
2017-07-16T05:05:26.253Z,101124.02
2017-07-16T05:07:56.095Z,101123.55
2017-07-16T05:10:25.996Z,101117.64
2017-07-16T05:12:55.078Z,101120.00
2017-07-16T05:15:24.118Z,101135.95
2017-07-16T05:17:53.188Z,101130.59
2017-07-16T05:20:22.265Z,101130.92
2017-07-16T05:22:52.100Z,101134.47
2017-07-16T05:25:21.177Z,101129.94
2017-07-16T05:27:51.016Z,101131.35
2017-07-16T05:30:20.089Z,101135.70
2017-07-16T05:32:49.920Z,101130.80
2017-07-16T05:35:18.989Z,101136.60
2017-07-16T05:37:48.800Z,101130.77
2017-07-16T05:40:17.913Z,101139.34
2017-07-16T05:42:46.944Z,101136.27
2017-07-16T05:45:16.005Z,101138.36
2017-07-16T05:47:45.097Z,101141.61
2017-07-16T05:50:14.920Z,101142.55
2017-07-16T05:52:44.167Z,101143.84
2017-07-16T05:55:13.292Z,101146.33
2017-07-16T05:57:42.374Z,101143.64
2017-07-16T06:00:11.526Z,101146.95
2017-07-16T06:02:40.551Z,101151.80
2017-07-16T06:05:09.644Z,101146.11
2017-07-16T06:07:38.733Z,101149.96
2017-07-16T06:10:07.840Z,101147.97
2017-07-16T06:12:36.922Z,101152.32
2017-07-16T06:15:05.985Z,101155.36
2017-07-16T06:17:35.038Z,101158.50
2017-07-16T06:20:04.125Z,101162.98
2017-07-16T06:22:33.264Z,101158.55
2017-07-16T06:25:02.327Z,101159.20
2017-07-16T06:27:31.377Z,101156.01
2017-07-16T06:30:00.432Z,101156.70
2017-07-16T06:32:29.479Z,101155.45
2017-07-16T06:34:58.547Z,101157.09
2017-07-16T06:37:27.602Z,101154.02
2017-07-16T06:39:56.868Z,101157.75
2017-07-16T06:42:25.956Z,101154.30
2017-07-16T06:44:55.025Z,101147.48
2017-07-16T06:47:24.076Z,101150.73
2017-07-16T06:49:53.146Z,101157.94
2017-07-16T06:52:22.222Z,101161.73
2017-07-16T06:54:51.271Z,101161.29
2017-07-16T06:57:21.203Z,101165.97
2017-07-16T06:59:51.032Z,101162.23
2017-07-16T07:02:20.118Z,101169.59
2017-07-16T07:04:49.217Z,101171.25
2017-07-16T07:07:19.057Z,101167.11
2017-07-16T07:09:48.129Z,101163.15
2017-07-16T07:12:17.177Z,101172.77
2017-07-16T07:14:46.285Z,101173.36
2017-07-16T07:17:15.364Z,101176.06
2017-07-16T07:19:44.653Z,101177.01
2017-07-16T07:22:13.760Z,101173.95
2017-07-16T07:24:42.834Z,101179.72
2017-07-16T07:27:12.551Z,101177.55
2017-07-16T07:29:41.637Z,101179.64
2017-07-16T07:32:10.694Z,101177.53
2017-07-16T07:34:40.532Z,101175.89
2017-07-16T07:37:09.675Z,101175.13
2017-07-16T07:39:38.748Z,101168.73
2017-07-16T07:42:07.921Z,101169.81
2017-07-16T07:44:37.009Z,101178.25
2017-07-16T07:47:06.117Z,101171.97
2017-07-16T07:49:35.189Z,101166.43
2017-07-16T07:52:04.463Z,101167.81
2017-07-16T07:54:33.508Z,101170.52
2017-07-16T07:57:02.560Z,101161.47
2017-07-16T07:59:31.619Z,101164.81
2017-07-16T08:02:00.688Z,101164.08
2017-07-16T08:04:29.778Z,101169.59
2017-07-16T08:06:58.834Z,101167.84
2017-07-16T08:09:27.887Z,101172.31
2017-07-16T08:11:56.968Z,101180.11
2017-07-16T08:14:26.031Z,101174.12
2017-07-16T08:16:55.877Z,101166.30
2017-07-16T08:19:24.956Z,101166.86
2017-07-16T08:21:54.027Z,101166.12
2017-07-16T08:24:23.080Z,101166.18
2017-07-16T08:26:52.149Z,101164.44
2017-07-16T08:29:21.227Z,101165.14
2017-07-16T08:31:51.077Z,101168.70
2017-07-16T08:34:20.149Z,101167.88
2017-07-16T08:36:49.975Z,101166.25
2017-07-16T08:39:19.002Z,101164.11
2017-07-16T08:41:48.073Z,101170.76
2017-07-16T08:44:17.132Z,101173.05
2017-07-16T08:46:46.981Z,101177.47
2017-07-16T08:49:16.056Z,101178.30
2017-07-16T08:51:45.108Z,101167.36
2017-07-16T08:54:14.194Z,101174.16
2017-07-16T08:56:43.296Z,101177.16
2017-07-16T08:59:12.377Z,101176.70
2017-07-16T09:01:41.420Z,101168.63
2017-07-16T09:04:10.508Z,101169.95
2017-07-16T09:06:39.585Z,101171.69
2017-07-16T09:09:08.661Z,101168.48
2017-07-16T09:11:37.727Z,101167.11
2017-07-16T09:14:06.781Z,101163.36
2017-07-16T09:16:36.618Z,101169.00
2017-07-16T09:19:05.666Z,101174.79
2017-07-16T09:21:34.762Z,101174.58
2017-07-16T09:24:03.856Z,101173.41
2017-07-16T09:26:33.555Z,101182.83
2017-07-16T09:29:02.664Z,101176.23
2017-07-16T09:31:31.778Z,101176.98
2017-07-16T09:34:01.622Z,101184.68
2017-07-16T09:36:30.685Z,101183.58
2017-07-16T09:38:59.875Z,101183.26
2017-07-16T09:41:29.256Z,101177.66
2017-07-16T09:43:58.794Z,101182.31
2017-07-16T09:46:28.611Z,101178.86
2017-07-16T09:48:58.460Z,101174.91
2017-07-16T09:51:27.527Z,101169.89
2017-07-16T09:53:56.643Z,101174.37
2017-07-16T09:56:25.748Z,101175.69
2017-07-16T09:58:54.815Z,101178.72
2017-07-16T10:01:24.673Z,101173.45
2017-07-16T10:03:53.732Z,101172.39
2017-07-16T10:06:22.790Z,101173.19
2017-07-16T10:08:51.845Z,101175.18
2017-07-16T10:11:20.913Z,101173.49
2017-07-16T10:13:50.014Z,101171.30
2017-07-16T10:16:19.096Z,101166.85
2017-07-16T10:18:48.905Z,101164.30
2017-07-16T10:21:17.980Z,101172.06
2017-07-16T10:23:47.038Z,101171.53
2017-07-16T10:26:16.936Z,101165.09
2017-07-16T10:28:46.038Z,101166.91
2017-07-16T10:31:15.088Z,101163.98
2017-07-16T10:33:44.155Z,101166.64
2017-07-16T10:36:13.252Z,101159.37
2017-07-16T10:38:42.318Z,101161.05
2017-07-16T10:41:11.428Z,101161.91
2017-07-16T10:43:40.512Z,101168.97
2017-07-16T10:46:09.619Z,101165.21
2017-07-16T10:48:38.674Z,101171.92
2017-07-16T10:51:08.490Z,101165.56
2017-07-16T10:53:37.576Z,101158.47
2017-07-16T10:56:06.644Z,101160.75
2017-07-16T10:58:35.709Z,101164.41
2017-07-16T11:01:04.782Z,101156.58
2017-07-16T11:03:33.848Z,101156.14
2017-07-16T11:06:03.672Z,101154.40
2017-07-16T11:08:33.517Z,101160.80
2017-07-16T11:11:02.589Z,101150.78
2017-07-16T11:13:31.669Z,101154.95
2017-07-16T11:16:02.266Z,101152.17
2017-07-16T11:18:32.344Z,101145.31
2017-07-16T11:21:01.470Z,101147.56
2017-07-16T11:23:30.519Z,101146.14
2017-07-16T11:25:59.578Z,101144.95
2017-07-16T11:28:28.691Z,101145.81
2017-07-16T11:30:58.516Z,101138.03
2017-07-16T11:33:28.726Z,101144.88
2017-07-16T11:35:57.798Z,101142.69
2017-07-16T11:38:26.852Z,101138.19
2017-07-16T11:40:55.953Z,101144.42
2017-07-16T11:43:25.030Z,101139.63
2017-07-16T11:45:54.076Z,101141.55
2017-07-16T11:48:23.617Z,101139.56
2017-07-16T11:50:52.664Z,101142.52
2017-07-16T11:53:22.735Z,101137.92
2017-07-16T11:55:51.781Z,101137.91
2017-07-16T11:58:20.874Z,101144.24
2017-07-16T12:00:49.962Z,101136.98
2017-07-16T12:03:19.063Z,101134.49
2017-07-16T12:05:48.161Z,101129.80
2017-07-16T12:08:17.221Z,101131.44
2017-07-16T12:10:46.292Z,101131.03
2017-07-16T12:13:16.169Z,101136.48
2017-07-16T12:15:45.228Z,101136.31
2017-07-16T12:18:14.308Z,101145.34
2017-07-16T12:20:44.139Z,101135.36
2017-07-16T12:23:13.263Z,101130.88
2017-07-16T12:25:42.528Z,101132.17
2017-07-16T12:28:11.659Z,101127.52
2017-07-16T12:30:40.697Z,101126.23
2017-07-16T12:33:10.571Z,101125.32
2017-07-16T12:35:39.666Z,101134.20
2017-07-16T12:38:08.895Z,101124.41
2017-07-16T12:40:37.949Z,101126.62
2017-07-16T12:43:07.081Z,101128.35
2017-07-16T12:45:36.440Z,101135.01
2017-07-16T12:48:05.481Z,101129.81
2017-07-16T12:50:35.347Z,101131.45
2017-07-16T12:53:04.437Z,101126.78
2017-07-16T12:55:33.486Z,101130.41
2017-07-16T12:58:02.569Z,101122.91
2017-07-16T13:00:31.664Z,101125.27
2017-07-16T13:03:00.785Z,101120.77
2017-07-16T13:05:29.836Z,101128.13
2017-07-16T13:07:58.904Z,101133.85
2017-07-16T13:10:27.957Z,101125.55
2017-07-16T13:12:57.804Z,101120.28
2017-07-16T13:15:27.234Z,101120.78
2017-07-16T13:17:56.290Z,101115.74
2017-07-16T13:20:25.631Z,101120.77
2017-07-16T13:22:54.700Z,101107.42
2017-07-16T13:25:23.761Z,101102.59
2017-07-16T13:27:52.833Z,101097.33
2017-07-16T13:30:21.895Z,101101.54
2017-07-16T13:32:50.977Z,101103.17
2017-07-16T13:35:20.091Z,101102.85
2017-07-16T13:37:49.166Z,101092.78
2017-07-16T13:40:18.263Z,101094.81
2017-07-16T13:42:47.376Z,101104.77
2017-07-16T13:45:16.680Z,101101.63
2017-07-16T13:47:45.775Z,101104.80
2017-07-16T13:50:14.878Z,101103.44
2017-07-16T13:52:43.928Z,101100.92
2017-07-16T13:55:13.768Z,101104.30
2017-07-16T13:57:42.836Z,101097.16
2017-07-16T14:00:12.739Z,101099.77
2017-07-16T14:02:41.795Z,101090.08
2017-07-16T14:05:10.840Z,101094.70
2017-07-16T14:07:40.709Z,101093.95
2017-07-16T14:10:09.821Z,101094.17
2017-07-16T14:12:38.901Z,101101.13
2017-07-16T14:15:07.999Z,101099.73
2017-07-16T14:17:37.038Z,101102.48
2017-07-16T14:20:06.141Z,101099.88
2017-07-16T14:22:35.219Z,101096.12
2017-07-16T14:25:04.306Z,101095.72
2017-07-16T14:27:33.397Z,101098.50
2017-07-16T14:30:02.515Z,101102.84
2017-07-16T14:32:31.581Z,101104.16
2017-07-16T14:35:00.692Z,101104.06
2017-07-16T14:37:29.765Z,101105.66
2017-07-16T14:39:58.809Z,101103.64
2017-07-16T14:42:27.898Z,101102.22
2017-07-16T14:44:57.732Z,101112.33
2017-07-16T14:47:26.886Z,101099.41
2017-07-16T14:49:56.769Z,101110.47
2017-07-16T14:52:25.869Z,101106.19
2017-07-16T14:54:54.944Z,101104.72
2017-07-16T14:57:23.985Z,101103.13
2017-07-16T14:59:53.098Z,101105.55
2017-07-16T15:02:22.154Z,101099.52
2017-07-16T15:04:51.266Z,101095.89
2017-07-16T15:07:20.327Z,101102.63
2017-07-16T15:09:49.381Z,101100.61
2017-07-16T15:12:18.465Z,101099.59
2017-07-16T15:14:48.289Z,101096.14
2017-07-16T15:17:17.364Z,101099.89
2017-07-16T15:19:47.197Z,101096.77
2017-07-16T15:22:17.072Z,101097.81
2017-07-16T15:24:46.172Z,101099.02
2017-07-16T15:27:15.235Z,101096.62
2017-07-16T15:29:44.316Z,101093.21
2017-07-16T15:32:13.579Z,101094.02
2017-07-16T15:34:42.653Z,101092.67
2017-07-16T15:37:11.775Z,101096.05
2017-07-16T15:39:40.836Z,101092.73
2017-07-16T15:42:09.934Z,101088.57
2017-07-16T15:44:39.021Z,101084.41
2017-07-16T15:47:08.792Z,101086.63
2017-07-16T15:49:38.600Z,101082.67
2017-07-16T15:52:08.610Z,101087.47
2017-07-16T15:54:38.441Z,101084.98
2017-07-16T15:57:07.513Z,101079.67
2017-07-16T15:59:37.356Z,101080.66
2017-07-16T16:02:06.445Z,101077.92
2017-07-16T16:04:35.530Z,101080.30
2017-07-16T16:07:05.354Z,101075.98
2017-07-16T16:09:34.451Z,101082.92
2017-07-16T16:12:03.517Z,101080.14
2017-07-16T16:14:33.372Z,101077.16
2017-07-16T16:17:02.439Z,101074.55
2017-07-16T16:19:33.049Z,101075.31
2017-07-16T16:22:02.115Z,101072.73
2017-07-16T16:24:31.181Z,101071.74
2017-07-16T16:27:00.276Z,101071.11
2017-07-16T16:29:29.367Z,101073.88
2017-07-16T16:31:58.468Z,101066.35
2017-07-16T16:34:27.515Z,101057.07
2017-07-16T16:36:56.594Z,101061.44
2017-07-16T16:39:25.654Z,101054.70
2017-07-16T16:41:54.767Z,101049.15
2017-07-16T16:44:23.891Z,101045.38
2017-07-16T16:46:52.940Z,101041.61
2017-07-16T16:49:22.024Z,101044.36
2017-07-16T16:51:51.156Z,101037.39
2017-07-16T16:54:20.226Z,101042.38
2017-07-16T16:56:49.296Z,101043.96
2017-07-16T16:59:19.126Z,101042.81
2017-07-16T17:01:48.201Z,101038.31
2017-07-16T17:04:18.075Z,101042.55
2017-07-16T17:06:47.121Z,101043.56
2017-07-16T17:09:16.208Z,101040.19
2017-07-16T17:11:46.053Z,101034.23
2017-07-16T17:14:15.128Z,101037.41
2017-07-16T17:16:44.224Z,101038.62
2017-07-16T17:19:14.083Z,101039.42
2017-07-16T17:21:43.156Z,101040.41
2017-07-16T17:24:12.276Z,101035.23
2017-07-16T17:26:41.355Z,101029.87
2017-07-16T17:29:10.466Z,101040.78
2017-07-16T17:31:40.365Z,101043.30
2017-07-16T17:34:09.460Z,101044.86
2017-07-16T18:45:27.733Z,101038.99
2017-07-16T18:47:56.793Z,101045.45
2017-07-16T18:50:25.889Z,101049.73
2017-07-16T18:52:54.960Z,101052.01
2017-07-16T18:55:24.860Z,101052.98
2017-07-16T18:57:54.950Z,101059.09
2017-07-16T19:00:24.091Z,101064.59
2017-07-16T19:02:53.905Z,101061.71
2017-07-16T19:05:22.991Z,101061.48
2017-07-16T19:07:52.910Z,101064.23
2017-07-16T19:10:22.078Z,101068.77
2017-07-16T19:12:52.070Z,101067.53
2017-07-16T19:15:21.253Z,101070.48
2017-07-16T19:17:51.312Z,101062.75
2017-07-16T19:20:20.626Z,101065.67
2017-07-16T19:22:49.724Z,101065.66
2017-07-16T19:25:19.111Z,101066.23
2017-07-16T19:27:48.295Z,101071.50
2017-07-16T19:30:17.399Z,101079.08
2017-07-16T19:32:46.614Z,101081.26
2017-07-16T19:35:15.780Z,101081.05
2017-07-16T19:37:44.940Z,101085.41
2017-07-16T19:40:14.109Z,101083.17
2017-07-16T19:42:43.254Z,101086.55
2017-07-16T19:45:12.491Z,101089.27
2017-07-16T19:47:41.569Z,101094.34
2017-07-16T19:50:10.740Z,101094.11
2017-07-16T19:52:39.994Z,101091.69
2017-07-16T19:55:09.183Z,101092.19
2017-07-16T19:57:38.263Z,101091.84
2017-07-16T20:00:07.416Z,101093.64
2017-07-16T20:02:36.538Z,101092.94
2017-07-16T20:05:05.683Z,101092.55
2017-07-16T20:07:34.793Z,101089.19
2017-07-16T20:10:03.871Z,101092.36
2017-07-16T20:12:32.942Z,101092.83
2017-07-16T20:15:02.013Z,101094.41
2017-07-16T20:17:31.101Z,101091.06
2017-07-16T20:20:00.147Z,101097.01
2017-07-16T20:22:29.206Z,101092.29
2017-07-16T20:24:58.279Z,101092.52
2017-07-16T20:27:27.347Z,101091.94
2017-07-16T20:29:56.425Z,101092.14
2017-07-16T20:32:25.523Z,101088.98
2017-07-16T20:34:54.575Z,101086.62
2017-07-16T20:37:23.642Z,101084.06
2017-07-16T20:39:52.758Z,101087.41
2017-07-16T20:42:21.854Z,101090.30
2017-07-16T20:44:50.912Z,101085.38
2017-07-16T20:47:19.999Z,101079.42
2017-07-16T20:49:49.071Z,101082.30
2017-07-16T20:52:18.136Z,101079.94
2017-07-16T20:54:47.222Z,101081.92
2017-07-16T20:57:16.305Z,101079.39
2017-07-16T20:59:45.398Z,101076.96
2017-07-16T21:02:14.468Z,101074.21
2017-07-16T21:04:43.542Z,101078.01
2017-07-16T21:07:12.759Z,101078.41
2017-07-16T21:09:41.829Z,101080.02
2017-07-16T21:12:10.895Z,101073.08
2017-07-16T21:14:39.986Z,101081.13
2017-07-16T21:17:09.106Z,101076.78
2017-07-16T21:19:38.157Z,101081.47
2017-07-16T21:22:07.272Z,101080.61
2017-07-16T21:24:36.349Z,101080.63
2017-07-16T21:27:05.406Z,101079.41
2017-07-16T21:29:34.479Z,101090.31
2017-07-16T21:32:03.612Z,101083.05
2017-07-16T21:34:32.737Z,101081.66
2017-07-16T21:37:01.812Z,101078.38
2017-07-16T21:39:31.119Z,101079.32
2017-07-16T21:42:00.265Z,101077.73
2017-07-16T21:44:29.346Z,101076.16
2017-07-16T21:46:58.410Z,101075.95
2017-07-16T21:49:27.499Z,101077.52
2017-07-16T21:51:56.564Z,101074.80
2017-07-16T21:54:25.636Z,101085.06
2017-07-16T21:56:54.713Z,101078.34
2017-07-16T21:59:23.778Z,101080.52
2017-07-16T22:01:52.855Z,101078.31
2017-07-16T22:04:21.965Z,101076.55
2017-07-16T22:06:51.016Z,101076.34
2017-07-16T22:09:20.110Z,101077.14
2017-07-16T22:11:49.174Z,101079.09
2017-07-16T22:14:18.225Z,101073.98
2017-07-16T22:16:47.317Z,101075.97
2017-07-16T22:19:16.495Z,101073.79
2017-07-16T22:21:45.582Z,101072.44
2017-07-16T22:24:14.693Z,101068.48
2017-07-16T22:26:43.729Z,101076.16
2017-07-16T22:29:12.999Z,101073.39
2017-07-16T22:31:42.057Z,101069.64
2017-07-16T22:34:11.137Z,101070.38
2017-07-16T22:36:40.230Z,101068.59
2017-07-16T22:39:09.321Z,101071.95
2017-07-16T22:41:38.412Z,101080.30
2017-07-16T22:44:07.742Z,101073.39
2017-07-16T22:46:36.789Z,101076.16
2017-07-16T22:49:05.852Z,101067.05
2017-07-16T22:51:34.904Z,101071.30
2017-07-16T22:54:03.989Z,101070.76
2017-07-16T22:56:33.060Z,101076.88
2017-07-16T22:59:02.131Z,101069.72
2017-07-16T23:01:31.189Z,101064.00
2017-07-16T23:04:00.261Z,101065.21
2017-07-16T23:06:29.355Z,101065.18
2017-07-16T23:08:58.433Z,101059.20
2017-07-16T23:11:27.524Z,101060.63
2017-07-16T23:13:56.608Z,101062.81
2017-07-16T23:16:25.808Z,101066.16
2017-07-16T23:18:54.885Z,101062.43
2017-07-16T23:21:23.940Z,101064.03
2017-07-16T23:23:53.023Z,101063.50
2017-07-16T23:26:22.101Z,101062.86
2017-07-16T23:28:51.140Z,101065.08
2017-07-16T23:31:20.205Z,101057.31
2017-07-16T23:33:49.273Z,101060.87
2017-07-16T23:36:18.343Z,101055.12
2017-07-16T23:38:47.405Z,101057.31
2017-07-16T23:41:16.485Z,101058.16
2017-07-16T23:43:45.545Z,101056.91
2017-07-16T23:46:14.628Z,101053.13
2017-07-16T23:48:43.690Z,101051.95
2017-07-16T23:51:12.792Z,101055.89
2017-07-16T23:53:41.851Z,101055.12
2017-07-16T23:56:10.989Z,101050.17
2017-07-16T23:58:40.015Z,101051.17
